Time;durP1;ratioP1;P1;durP2;ratioP2;P2;SDS_P1;SDS_P2;PMS_P1;PMS_P2;Temp;Humidity;BMP_temperature;BMP_pressure;BME280_temperature;BME280_humidity;BME280_pressure;Samples;Min_cycle;Max_cycle;Signal;HPM_P1;HPM_P2
2021/04/06 00:04:20;;;;;;;3.47;1.67;;;;;;;;;;10642815;27;20686;-69
2021/04/06 00:09:23;;;;;;;3.13;1.77;;;;;;;;;;10613721;27;20247;-69
2021/04/06 00:14:26;;;;;;;4.97;1.63;;;;;;;;;;10634087;27;20798;-69
2021/04/06 00:19:30;;;;;;;3.70;1.60;;;;;;;;;;10624113;27;20204;-69
2021/04/06 00:24:34;;;;;;;2.63;1.37;;;;;;;;;;10642320;27;20284;-69
2021/04/06 00:29:36;;;;;;;3.30;1.30;;;;;;;;;;10639704;27;20239;-69
2021/04/06 00:34:40;;;;;;;4.57;1.80;;;;;;;;;;10634045;27;20266;-68
2021/04/06 00:39:42;;;;;;;4.33;1.97;;;;;;;;;;10639051;27;20277;-68
2021/04/06 00:44:46;;;;;;;3.40;1.70;;;;;;;;;;10610504;27;20305;-68
2021/04/06 00:49:49;;;;;;;0.77;0.50;;;;;;;;;;10635738;27;20483;-68
2021/04/06 00:54:51;;;;;;;3.57;1.70;;;;;;;;;;10625179;27;20249;-67
2021/04/06 01:00:12;;;;;;;4.53;1.90;;;;;;;;;;10633770;27;20977;-68
2021/04/06 01:05:15;;;;;;;3.03;1.20;;;;;;;;;;10634476;27;20254;-68
2021/04/06 01:10:17;;;;;;;2.60;0.70;;;;;;;;;;10633865;27;20206;-68
2021/04/06 01:15:19;;;;;;;3.57;1.90;;;;;;;;;;10607666;27;20217;-68
2021/04/06 01:20:21;;;;;;;5.30;1.90;;;;;;;;;;10621525;27;21145;-68
2021/04/06 01:25:25;;;;;;;5.77;1.90;;;;;;;;;;10628579;27;20214;-70
2021/04/06 01:30:43;;;;;;;4.53;1.80;;;;;;;;;;10610230;27;20645;-69
2021/04/06 01:35:45;;;;;;;5.63;2.20;;;;;;;;;;10598650;27;20209;-70
2021/04/06 01:40:48;;;;;;;4.07;1.60;;;;;;;;;;10638884;27;20233;-68
2021/04/06 01:45:52;;;;;;;3.40;1.53;;;;;;;;;;10638184;27;20214;-68
2021/04/06 01:50:54;;;;;;;4.40;2.10;;;;;;;;;;10644821;27;20205;-68
2021/04/06 01:55:59;;;;;;;5.50;2.00;;;;;;;;;;10655888;27;20689;-67
2021/04/06 02:01:15;;;;;;;4.07;1.90;;;;;;;;;;10610222;27;20217;-68
2021/04/06 02:06:17;;;;;;;5.67;2.00;;;;;;;;;;10648835;27;20213;-68
2021/04/06 02:11:21;;;;;;;5.80;2.00;;;;;;;;;;10647663;27;20218;-68
2021/04/06 02:16:23;;;;;;;2.53;1.13;;;;;;;;;;10648880;27;20209;-68
2021/04/06 02:21:27;;;;;;;4.00;1.67;;;;;;;;;;10643569;27;20192;-67
2021/04/06 02:26:29;;;;;;;3.70;1.37;;;;;;;;;;10646988;27;20635;-68
2021/04/06 02:31:31;;;;;;;4.93;2.13;;;;;;;;;;10641225;27;20274;-68
2021/04/06 02:36:33;;;;;;;4.53;2.27;;;;;;;;;;10641513;27;20229;-68
2021/04/06 02:41:49;;;;;;;5.93;2.40;;;;;;;;;;10634626;27;20274;-68
2021/04/06 02:46:52;;;;;;;5.70;2.17;;;;;;;;;;10618837;27;20220;-70
2021/04/06 02:51:54;;;;;;;6.07;1.87;;;;;;;;;;10645920;27;20267;-68
2021/04/06 02:56:56;;;;;;;3.70;1.37;;;;;;;;;;10639154;27;20206;-68
2021/04/06 03:01:58;;;;;;;4.07;1.20;;;;;;;;;;10640397;27;20186;-69
2021/04/06 03:07:00;;;;;;;3.87;1.70;;;;;;;;;;10613501;27;20232;-70
2021/04/06 03:12:06;;;;;;;6.60;2.60;;;;;;;;;;10619559;27;20259;-69
2021/04/06 03:17:07;;;;;;;9.53;2.90;;;;;;;;;;10638554;27;20211;-68
2021/04/06 03:22:10;;;;;;;3.43;1.50;;;;;;;;;;10611544;27;20225;-68
2021/04/06 03:27:12;;;;;;;3.77;1.80;;;;;;;;;;10630745;27;20655;-69
2021/04/06 03:32:16;;;;;;;2.60;1.20;;;;;;;;;;10600648;27;20206;-69
2021/04/06 03:37:17;;;;;;;5.53;2.50;;;;;;;;;;10593210;27;20567;-69
2021/04/06 03:42:24;;;;;;;4.97;2.00;;;;;;;;;;10605420;27;20240;-69
2021/04/06 03:47:25;;;;;;;2.77;1.50;;;;;;;;;;10585400;27;20767;-69
2021/04/06 03:52:27;;;;;;;3.80;1.43;;;;;;;;;;10595840;27;20389;-70
2021/04/06 03:57:35;;;;;;;1.80;1.03;;;;;;;;;;10595613;27;20206;-70
2021/04/06 04:02:38;;;;;;;5.33;2.33;;;;;;;;;;10612256;27;20649;-70
2021/04/06 04:07:40;;;;;;;1.63;1.00;;;;;;;;;;10602489;27;20497;-68
2021/04/06 04:12:43;;;;;;;6.97;2.57;;;;;;;;;;10588339;27;20674;-68
2021/04/06 04:17:48;;;;;;;1.93;0.90;;;;;;;;;;10598500;27;20698;-68
2021/04/06 04:22:50;;;;;;;3.27;1.60;;;;;;;;;;10598675;27;20269;-67
2021/04/06 04:27:53;;;;;;;5.47;1.93;;;;;;;;;;10591066;27;20214;-70
2021/04/06 04:32:54;;;;;;;3.10;1.47;;;;;;;;;;10586902;27;20222;-69
2021/04/06 04:37:56;;;;;;;3.67;1.23;;;;;;;;;;10584111;27;20527;-69
2021/04/06 04:42:59;;;;;;;2.47;1.40;;;;;;;;;;10592870;27;20244;-69
2021/04/06 04:48:03;;;;;;;3.27;1.53;;;;;;;;;;10596393;27;20214;-70
2021/04/06 04:53:06;;;;;;;2.63;1.27;;;;;;;;;;10595482;27;20202;-69
2021/04/06 04:58:09;;;;;;;2.30;1.10;;;;;;;;;;10596471;27;20219;-70
2021/04/06 05:03:11;;;;;;;4.73;2.17;;;;;;;;;;10598633;27;20240;-68
2021/04/06 05:08:13;;;;;;;4.70;1.97;;;;;;;;;;10605503;27;20226;-69
2021/04/06 05:13:15;;;;;;;4.80;1.50;;;;;;;;;;10597051;27;20221;-69
2021/04/06 05:18:17;;;;;;;1.90;0.83;;;;;;;;;;10586241;27;20561;-70
2021/04/06 05:23:19;;;;;;;1.23;0.43;;;;;;;;;;10591303;27;20304;-67
2021/04/06 05:28:21;;;;;;;4.23;2.03;;;;;;;;;;10604708;27;20236;-69
2021/04/06 05:33:23;;;;;;;4.20;1.37;;;;;;;;;;10596101;28;20209;-70
2021/04/06 05:38:25;;;;;;;4.10;2.20;;;;;;;;;;10589975;27;20558;-71
2021/04/06 05:43:27;;;;;;;4.77;1.33;;;;;;;;;;10603328;27;20190;-71
2021/04/06 05:48:32;;;;;;;4.27;2.00;;;;;;;;;;10576442;27;20668;-71
2021/04/06 05:53:34;;;;;;;1.80;1.00;;;;;;;;;;10590545;27;20325;-71
2021/04/06 05:58:37;;;;;;;2.77;1.03;;;;;;;;;;10594107;27;20278;-71
2021/04/06 06:03:39;;;;;;;3.77;1.77;;;;;;;;;;10588926;27;20300;-71
2021/04/06 06:08:42;;;;;;;3.10;1.20;;;;;;;;;;10600179;27;20202;-70
2021/04/06 06:13:45;;;;;;;5.20;1.87;;;;;;;;;;10574833;27;20211;-70
2021/04/06 06:18:57;;;;;;;2.37;1.50;;;;;;;;;;10586687;27;20330;-70
2021/04/06 06:23:59;;;;;;;2.70;1.43;;;;;;;;;;10568177;27;20339;-70
2021/04/06 06:29:07;;;;;;;4.40;1.83;;;;;;;;;;10584823;27;20198;-69
2021/04/06 06:34:26;;;;;;;6.67;2.33;;;;;;;;;;10549737;27;20226;-70
2021/04/06 06:39:28;;;;;;;6.90;2.10;;;;;;;;;;10557180;27;20217;-69
2021/04/06 06:44:33;;;;;;;6.77;2.20;;;;;;;;;;10552067;27;20398;-70
2021/04/06 06:49:37;;;;;;;3.10;1.70;;;;;;;;;;10556023;27;20214;-71
2021/04/06 06:54:39;;;;;;;4.57;1.67;;;;;;;;;;10517360;27;20341;-70
2021/04/06 06:59:45;;;;;;;2.83;1.03;;;;;;;;;;10537353;27;20198;-72
2021/04/06 07:04:47;;;;;;;2.07;1.40;;;;;;;;;;10561797;27;20293;-71
2021/04/06 07:09:48;;;;;;;3.67;1.20;;;;;;;;;;10561083;27;20277;-71
2021/04/06 07:14:51;;;;;;;1.33;0.93;;;;;;;;;;10546713;27;20283;-71
2021/04/06 07:19:53;;;;;;;4.37;1.80;;;;;;;;;;10531128;27;20194;-71
2021/04/06 07:24:55;;;;;;;1.13;0.80;;;;;;;;;;10547312;27;20373;-70
2021/04/06 07:29:58;;;;;;;2.70;1.00;;;;;;;;;;10547390;27;20197;-70
2021/04/06 07:34:59;;;;;;;3.63;1.77;;;;;;;;;;10589240;27;20789;-70
2021/04/06 07:40:06;;;;;;;3.47;1.23;;;;;;;;;;10586551;27;20186;-70
2021/04/06 07:45:10;;;;;;;4.27;1.77;;;;;;;;;;10599083;27;20218;-70
2021/04/06 07:50:13;;;;;;;4.63;1.73;;;;;;;;;;10608520;27;20687;-70
2021/04/06 07:55:14;;;;;;;2.43;1.07;;;;;;;;;;10588645;27;20681;-69
2021/04/06 08:00:45;;;;;;;4.27;1.60;;;;;;;;;;10604329;27;20191;-71
2021/04/06 08:06:07;;;;;;;4.53;1.03;;;;;;;;;;10588040;27;20203;-70
2021/04/06 08:11:08;;;;;;;7.07;1.97;;;;;;;;;;10600385;27;20607;-71
2021/04/06 08:16:11;;;;;;;3.53;1.50;;;;;;;;;;10597594;27;20342;-70
2021/04/06 08:21:13;;;;;;;3.43;1.20;;;;;;;;;;10572164;27;20206;-70
2021/04/06 08:26:25;;;;;;;4.30;1.70;;;;;;;;;;10600517;27;20222;-70
2021/04/06 08:31:31;;;;;;;1.37;0.90;;;;;;;;;;10601685;27;20380;-70
2021/04/06 08:36:33;;;;;;;3.33;1.37;;;;;;;;;;10605562;27;20612;-70
2021/04/06 08:41:39;;;;;;;4.43;1.37;;;;;;;;;;10582052;27;20630;-70
2021/04/06 08:46:45;;;;;;;4.77;1.70;;;;;;;;;;10585952;27;20247;-70
2021/04/06 08:51:48;;;;;;;3.93;1.37;;;;;;;;;;10598083;27;20279;-70
2021/04/06 08:56:50;;;;;;;4.97;1.50;;;;;;;;;;10601395;27;20214;-70
2021/04/06 09:01:57;;;;;;;3.07;1.23;;;;;;;;;;10586845;27;20187;-71
2021/04/06 09:06:59;;;;;;;3.27;1.70;;;;;;;;;;10582565;27;20218;-69
2021/04/06 09:12:03;;;;;;;3.77;1.67;;;;;;;;;;10588809;27;20241;-70
2021/04/06 09:17:07;;;;;;;6.07;1.97;;;;;;;;;;10569296;27;20206;-70
2021/04/06 09:22:09;;;;;;;3.43;1.80;;;;;;;;;;10595639;27;20281;-70
2021/04/06 09:27:11;;;;;;;3.47;1.50;;;;;;;;;;10574025;28;20677;-70
2021/04/06 09:32:15;;;;;;;4.53;1.70;;;;;;;;;;10598604;28;20207;-72
2021/04/06 09:37:17;;;;;;;4.57;1.90;;;;;;;;;;10597904;28;20293;-70
2021/04/06 09:42:19;;;;;;;4.73;1.67;;;;;;;;;;10605454;27;20341;-69
2021/04/06 09:47:22;;;;;;;1.63;0.87;;;;;;;;;;10605229;27;20242;-67
2021/04/06 09:52:24;;;;;;;4.17;1.90;;;;;;;;;;10576066;28;20722;-69
2021/04/06 09:57:31;;;;;;;3.50;1.67;;;;;;;;;;10591991;27;20214;-69
2021/04/06 10:02:34;;;;;;;4.43;1.70;;;;;;;;;;10591549;27;20543;-69
2021/04/06 10:07:44;;;;;;;4.77;2.20;;;;;;;;;;10575787;27;20218;-69
2021/04/06 10:12:46;;;;;;;6.30;2.03;;;;;;;;;;10604984;27;20213;-69
2021/04/06 10:17:48;;;;;;;4.87;1.50;;;;;;;;;;10612875;27;20359;-70
2021/04/06 10:22:51;;;;;;;5.73;2.40;;;;;;;;;;10581803;27;20199;-69
2021/04/06 10:27:54;;;;;;;3.87;1.50;;;;;;;;;;10584847;27;20897;-68
2021/04/06 10:33:04;;;;;;;4.50;2.20;;;;;;;;;;10601413;27;20610;-68
2021/04/06 10:38:06;;;;;;;4.83;1.90;;;;;;;;;;10607250;27;20269;-69
2021/04/06 10:43:09;;;;;;;5.03;1.80;;;;;;;;;;10611262;27;20717;-69
2021/04/06 10:48:13;;;;;;;2.07;1.30;;;;;;;;;;10585841;27;20636;-69
2021/04/06 10:53:16;;;;;;;4.93;1.53;;;;;;;;;;10592635;27;20210;-69
2021/04/06 10:58:26;;;;;;;7.80;2.20;;;;;;;;;;10607646;27;20214;-67
2021/04/06 11:03:36;;;;;;;2.63;1.43;;;;;;;;;;10612872;27;20203;-68
2021/04/06 11:08:40;;;;;;;3.70;2.20;;;;;;;;;;10644051;27;20550;-68
2021/04/06 11:13:41;;;;;;;4.57;1.80;;;;;;;;;;10624575;27;20198;-67
2021/04/06 11:18:55;;;;;;;4.17;1.80;;;;;;;;;;10642471;27;20278;-68
2021/04/06 11:23:57;;;;;;;5.03;1.83;;;;;;;;;;10634710;27;20213;-69
2021/04/06 11:28:59;;;;;;;8.23;1.60;;;;;;;;;;10634414;27;20272;-70
2021/04/06 11:34:03;;;;;;;3.97;1.87;;;;;;;;;;10636214;27;20815;-69
2021/04/06 11:39:06;;;;;;;5.90;2.00;;;;;;;;;;10637267;27;20222;-69
2021/04/06 11:44:08;;;;;;;3.60;1.63;;;;;;;;;;10640995;27;20294;-69
2021/04/06 11:49:11;;;;;;;5.57;1.80;;;;;;;;;;10623788;27;20293;-69
2021/04/06 11:54:14;;;;;;;4.80;1.73;;;;;;;;;;10620039;27;20232;-68
2021/04/06 11:59:16;;;;;;;5.67;2.03;;;;;;;;;;10635056;27;20297;-69
2021/04/06 12:04:19;;;;;;;5.53;2.20;;;;;;;;;;10646972;27;20605;-69
2021/04/06 12:09:20;;;;;;;6.77;2.10;;;;;;;;;;10638633;27;20205;-69
2021/04/06 12:14:22;;;;;;;5.57;2.07;;;;;;;;;;10638144;27;20295;-69
2021/04/06 12:19:24;;;;;;;7.77;2.77;;;;;;;;;;10645347;27;20333;-68
2021/04/06 12:24:26;;;;;;;6.00;2.53;;;;;;;;;;10649585;27;20598;-68
2021/04/06 12:29:27;;;;;;;1.83;1.17;;;;;;;;;;10644323;27;20578;-69
2021/04/06 12:34:31;;;;;;;2.50;1.37;;;;;;;;;;10621184;27;20676;-66
2021/04/06 12:39:33;;;;;;;6.77;2.07;;;;;;;;;;10650238;27;20621;-69
2021/04/06 12:44:35;;;;;;;6.37;2.30;;;;;;;;;;10640601;27;20210;-68
2021/04/06 12:49:37;;;;;;;5.57;2.10;;;;;;;;;;10628843;27;20224;-69
2021/04/06 12:54:39;;;;;;;3.67;1.67;;;;;;;;;;10647683;27;20521;-69
2021/04/06 12:59:41;;;;;;;5.00;2.00;;;;;;;;;;10616113;27;20209;-68
2021/04/06 13:04:43;;;;;;;6.43;2.40;;;;;;;;;;10616538;27;20215;-70
2021/04/06 13:09:45;;;;;;;5.73;2.30;;;;;;;;;;10617124;27;20240;-69
2021/04/06 13:14:46;;;;;;;3.77;1.87;;;;;;;;;;10630468;27;20209;-69
2021/04/06 13:19:49;;;;;;;3.90;2.03;;;;;;;;;;10639320;27;20205;-70
2021/04/06 13:24:50;;;;;;;4.83;1.63;;;;;;;;;;10639045;27;20227;-70
2021/04/06 13:29:52;;;;;;;3.40;1.50;;;;;;;;;;10610322;27;20201;-70
2021/04/06 13:34:54;;;;;;;3.00;1.90;;;;;;;;;;10642717;27;20221;-69
2021/04/06 13:39:56;;;;;;;0.87;0.80;;;;;;;;;;10626809;27;20333;-68
2021/04/06 13:45:03;;;;;;;3.43;1.30;;;;;;;;;;10641251;27;20292;-69
2021/04/06 13:50:07;;;;;;;5.00;1.10;;;;;;;;;;10638379;27;20198;-70
2021/04/06 13:55:09;;;;;;;2.03;1.20;;;;;;;;;;10634586;27;20241;-68
2021/04/06 14:00:13;;;;;;;2.97;1.30;;;;;;;;;;10641371;27;20189;-70
2021/04/06 14:05:16;;;;;;;2.83;1.27;;;;;;;;;;10630504;27;20213;-70
2021/04/06 14:10:18;;;;;;;4.03;1.43;;;;;;;;;;10655842;27;20225;-70
2021/04/06 14:15:20;;;;;;;2.10;0.90;;;;;;;;;;10641907;27;20297;-70
2021/04/06 14:20:23;;;;;;;3.60;1.33;;;;;;;;;;10641946;27;20213;-70
2021/04/06 14:25:26;;;;;;;2.37;0.90;;;;;;;;;;10619258;27;20233;-70
2021/04/06 14:30:29;;;;;;;3.40;1.30;;;;;;;;;;10625598;27;20348;-68
2021/04/06 14:35:32;;;;;;;1.90;0.67;;;;;;;;;;10631414;27;20565;-70
2021/04/06 14:40:34;;;;;;;2.67;0.90;;;;;;;;;;10649197;27;20185;-70
2021/04/06 14:45:37;;;;;;;1.77;0.80;;;;;;;;;;10655890;27;20574;-68
2021/04/06 14:50:59;;;;;;;2.53;1.00;;;;;;;;;;10637346;27;20196;-68
2021/04/06 14:56:03;;;;;;;2.17;0.80;;;;;;;;;;10639112;27;20229;-69
2021/04/06 15:01:06;;;;;;;1.13;0.60;;;;;;;;;;10640427;27;20591;-69
2021/04/06 15:06:22;;;;;;;3.37;1.40;;;;;;;;;;10630370;27;20266;-68
2021/04/06 15:11:24;;;;;;;2.37;1.30;;;;;;;;;;10648078;27;20777;-69
2021/04/06 15:16:25;;;;;;;2.37;0.87;;;;;;;;;;10619960;27;20333;-69
2021/04/06 15:21:28;;;;;;;2.90;1.30;;;;;;;;;;10631797;27;20247;-69
2021/04/06 15:26:29;;;;;;;4.23;1.60;;;;;;;;;;10646396;27;20698;-70
2021/04/06 15:31:31;;;;;;;3.73;1.30;;;;;;;;;;10640039;27;20759;-69
2021/04/06 15:36:34;;;;;;;3.73;1.30;;;;;;;;;;10636888;27;20240;-70
2021/04/06 15:41:36;;;;;;;1.40;0.50;;;;;;;;;;10644835;27;20571;-70
2021/04/06 15:46:37;;;;;;;1.17;0.50;;;;;;;;;;10626742;27;20681;-67
2021/04/06 15:51:42;;;;;;;1.00;0.63;;;;;;;;;;10641700;27;20225;-69
2021/04/06 15:56:46;;;;;;;0.60;0.30;;;;;;;;;;10638788;27;20210;-71
2021/04/06 16:01:50;;;;;;;2.10;0.90;;;;;;;;;;10630680;27;20185;-71
2021/04/06 16:06:53;;;;;;;1.53;0.60;;;;;;;;;;10622866;27;20642;-72
2021/04/06 16:11:55;;;;;;;3.13;1.00;;;;;;;;;;10627762;27;20286;-69
2021/04/06 16:16:58;;;;;;;0.60;0.60;;;;;;;;;;10647142;27;20711;-70
2021/04/06 16:22:03;;;;;;;2.83;1.17;;;;;;;;;;10620123;27;20627;-71
2021/04/06 16:27:05;;;;;;;0.77;0.30;;;;;;;;;;10646381;27;20333;-69
2021/04/06 16:32:07;;;;;;;0.73;0.47;;;;;;;;;;10628825;27;20236;-68
2021/04/06 16:37:09;;;;;;;3.07;1.40;;;;;;;;;;10641222;27;20218;-69
2021/04/06 16:42:11;;;;;;;2.23;0.93;;;;;;;;;;10627314;27;20193;-67
2021/04/06 16:47:20;;;;;;;3.97;1.60;;;;;;;;;;10641327;27;20311;-67
2021/04/06 16:52:23;;;;;;;3.63;1.47;;;;;;;;;;10640464;27;20230;-68
2021/04/06 16:57:25;;;;;;;1.43;0.80;;;;;;;;;;10635803;27;20594;-68
2021/04/06 17:02:27;;;;;;;3.77;1.03;;;;;;;;;;10634236;27;20193;-68
2021/04/06 17:07:29;;;;;;;5.17;1.80;;;;;;;;;;10637986;27;20659;-68
2021/04/06 17:12:31;;;;;;;1.87;0.87;;;;;;;;;;10642685;27;20210;-68
2021/04/06 17:17:32;;;;;;;5.33;1.63;;;;;;;;;;10632752;27;20704;-68
2021/04/06 17:22:35;;;;;;;3.47;1.40;;;;;;;;;;10628776;27;20202;-67
2021/04/06 17:27:38;;;;;;;4.27;2.00;;;;;;;;;;10646018;27;20703;-68
2021/04/06 17:32:40;;;;;;;7.57;2.50;;;;;;;;;;10655078;27;20676;-67
2021/04/06 17:37:43;;;;;;;7.17;2.80;;;;;;;;;;10607092;27;20205;-66
2021/04/06 17:42:45;;;;;;;7.80;2.17;;;;;;;;;;10640914;27;20639;-66
2021/04/06 17:47:46;;;;;;;5.33;2.00;;;;;;;;;;10623624;27;20743;-69
2021/04/06 17:52:49;;;;;;;7.20;2.80;;;;;;;;;;10624332;27;20280;-67
2021/04/06 17:57:52;;;;;;;5.63;2.47;;;;;;;;;;10627204;27;20214;-68
2021/04/06 18:02:55;;;;;;;4.13;1.80;;;;;;;;;;10646401;27;20421;-67
2021/04/06 18:07:58;;;;;;;4.87;2.57;;;;;;;;;;10623179;27;20635;-67
2021/04/06 18:12:59;;;;;;;8.00;2.20;;;;;;;;;;10630155;27;20625;-67
2021/04/06 18:18:03;;;;;;;9.67;4.13;;;;;;;;;;10629926;27;20673;-67
2021/04/06 18:23:06;;;;;;;5.53;2.17;;;;;;;;;;10614233;27;20197;-68
2021/04/06 18:28:08;;;;;;;8.07;3.00;;;;;;;;;;10644674;27;20213;-68
2021/04/06 18:33:11;;;;;;;6.10;2.50;;;;;;;;;;10631583;27;20248;-67
2021/04/06 18:38:13;;;;;;;5.20;2.47;;;;;;;;;;10640386;27;20263;-68
2021/04/06 18:43:15;;;;;;;4.50;2.00;;;;;;;;;;10638861;27;20281;-66
2021/04/06 18:48:16;;;;;;;3.77;1.77;;;;;;;;;;10631902;27;20681;-67
2021/04/06 18:53:20;;;;;;;6.87;2.40;;;;;;;;;;10651413;27;20629;-69
2021/04/06 18:58:22;;;;;;;4.33;2.27;;;;;;;;;;10638387;27;20244;-68
2021/04/06 19:03:23;;;;;;;4.23;1.63;;;;;;;;;;10650744;27;20197;-68
2021/04/06 19:08:26;;;;;;;4.23;2.07;;;;;;;;;;10653305;27;20241;-68
2021/04/06 19:13:31;;;;;;;6.33;2.43;;;;;;;;;;10645500;27;20203;-67
2021/04/06 19:18:34;;;;;;;4.97;2.00;;;;;;;;;;10635627;27;20221;-66
2021/04/06 19:23:37;;;;;;;3.07;1.47;;;;;;;;;;10637273;27;20266;-68
2021/04/06 19:28:39;;;;;;;6.07;2.07;;;;;;;;;;10636570;27;20284;-66
2021/04/06 19:33:42;;;;;;;6.80;2.93;;;;;;;;;;10628498;27;20202;-67
2021/04/06 19:38:44;;;;;;;7.30;2.70;;;;;;;;;;10631956;27;20221;-67
2021/04/06 19:43:45;;;;;;;7.03;2.40;;;;;;;;;;10637345;27;20657;-65
2021/04/06 19:48:47;;;;;;;6.20;2.20;;;;;;;;;;10630455;27;20242;-65
2021/04/06 19:53:50;;;;;;;4.87;2.20;;;;;;;;;;10635598;27;20293;-67
2021/04/06 19:58:52;;;;;;;2.27;1.30;;;;;;;;;;10625653;27;20238;-66
2021/04/06 20:03:55;;;;;;;5.17;1.53;;;;;;;;;;10636506;27;20213;-66
2021/04/06 20:08:57;;;;;;;3.37;1.53;;;;;;;;;;10630447;27;20202;-66
2021/04/06 20:14:00;;;;;;;4.77;2.00;;;;;;;;;;10646053;27;20207;-67
2021/04/06 20:19:03;;;;;;;4.40;1.93;;;;;;;;;;10614554;27;20305;-67
2021/04/06 20:24:08;;;;;;;5.60;1.77;;;;;;;;;;10608541;27;20206;-67
2021/04/06 20:29:12;;;;;;;4.13;1.97;;;;;;;;;;10633307;27;20683;-67
2021/04/06 20:34:15;;;;;;;6.83;2.40;;;;;;;;;;10614099;27;20267;-68
2021/04/06 20:39:17;;;;;;;5.33;2.10;;;;;;;;;;10635020;27;20651;-66
2021/04/06 20:44:19;;;;;;;6.07;2.17;;;;;;;;;;10645963;27;20986;-66
2021/04/06 20:49:21;;;;;;;4.97;1.53;;;;;;;;;;10647177;27;20217;-65
2021/04/06 20:54:24;;;;;;;4.07;1.90;;;;;;;;;;10626419;27;20304;-67
2021/04/06 20:59:25;;;;;;;3.97;1.53;;;;;;;;;;10639630;27;20194;-66
2021/04/06 21:04:27;;;;;;;4.10;1.93;;;;;;;;;;10625724;27;20205;-65
2021/04/06 21:09:29;;;;;;;1.40;1.00;;;;;;;;;;10630435;27;20194;-68
2021/04/06 21:14:31;;;;;;;3.13;1.33;;;;;;;;;;10610029;27;20280;-67
2021/04/06 21:19:33;;;;;;;4.77;2.00;;;;;;;;;;10631295;27;20194;-68
2021/04/06 21:24:36;;;;;;;4.93;2.10;;;;;;;;;;10632731;27;20278;-66
2021/04/06 21:29:37;;;;;;;4.82;2.22;;;;;;;;;;10636275;27;21120;-68
2021/04/06 21:34:39;;;;;;;4.23;1.30;;;;;;;;;;10639751;27;20717;-66
2021/04/06 21:39:41;;;;;;;5.40;1.90;;;;;;;;;;10642835;27;20217;-66
2021/04/06 21:44:43;;;;;;;1.87;1.23;;;;;;;;;;10644543;27;20209;-68
2021/04/06 21:49:44;;;;;;;4.60;1.77;;;;;;;;;;10642796;27;20238;-67
2021/04/06 21:54:47;;;;;;;3.30;1.50;;;;;;;;;;10646918;27;20743;-67
2021/04/06 21:59:48;;;;;;;5.73;2.53;;;;;;;;;;10642794;27;20183;-66
2021/04/06 22:04:50;;;;;;;2.30;1.10;;;;;;;;;;10644925;27;20281;-66
2021/04/06 22:09:53;;;;;;;1.73;0.93;;;;;;;;;;10644549;27;20234;-66
2021/04/06 22:14:54;;;;;;;5.97;2.30;;;;;;;;;;10653288;27;20213;-67
2021/04/06 22:19:56;;;;;;;1.83;0.93;;;;;;;;;;10626426;27;20549;-66
2021/04/06 22:24:59;;;;;;;7.70;2.23;;;;;;;;;;10648120;27;20606;-67
2021/04/06 22:30:00;;;;;;;4.93;2.30;;;;;;;;;;10651210;27;20654;-66
2021/04/06 22:35:06;;;;;;;5.10;2.50;;;;;;;;;;10645330;27;20222;-66
2021/04/06 22:40:10;;;;;;;6.03;2.37;;;;;;;;;;10648433;27;20235;-67
2021/04/06 22:45:13;;;;;;;5.00;2.43;;;;;;;;;;10644346;27;20301;-66
2021/04/06 22:50:16;;;;;;;5.40;2.03;;;;;;;;;;10643865;27;20198;-66
2021/04/06 22:55:20;;;;;;;5.17;2.00;;;;;;;;;;10639243;27;20298;-66
2021/04/06 23:00:25;;;;;;;3.97;2.00;;;;;;;;;;10639500;27;20189;-66
2021/04/06 23:05:26;;;;;;;7.80;2.80;;;;;;;;;;10646092;27;20284;-67
2021/04/06 23:10:29;;;;;;;6.63;2.10;;;;;;;;;;10645637;27;20229;-66
2021/04/06 23:15:30;;;;;;;6.00;2.83;;;;;;;;;;10619422;27;20228;-67
2021/04/06 23:20:32;;;;;;;5.00;2.57;;;;;;;;;;10642617;27;20243;-64
2021/04/06 23:25:35;;;;;;;5.23;2.20;;;;;;;;;;10643156;27;20281;-64
2021/04/06 23:30:37;;;;;;;5.53;2.47;;;;;;;;;;10639682;27;20391;-65
2021/04/06 23:35:39;;;;;;;4.97;2.33;;;;;;;;;;10625386;27;20213;-65
2021/04/06 23:40:42;;;;;;;5.57;2.43;;;;;;;;;;10635216;27;20190;-65
2021/04/06 23:45:44;;;;;;;6.07;2.33;;;;;;;;;;10651099;27;20563;-66
2021/04/06 23:50:45;;;;;;;6.53;3.17;;;;;;;;;;10635015;27;20729;-66
2021/04/06 23:55:48;;;;;;;7.13;2.90;;;;;;;;;;10644966;27;20213;-66
